Time;durP1;ratioP1;P1;durP2;ratioP2;P2;SDS_P1;SDS_P2;PMS_P1;PMS_P2;Temp;Humidity;BMP_temperature;BMP_pressure;BME280_temperature;BME280_humidity;BME280_pressure;Samples;Min_cycle;Max_cycle;Signal;HPM_P1;HPM_P2
2022/08/25 00:01:45;;;;;;;0.70;0.63;;;;;;;;;;4987052;28;20187;-68
2022/08/25 00:04:14;;;;;;;1.00;0.60;;;;;;;;;;4976062;28;20193;-69
2022/08/25 00:06:42;;;;;;;1.43;0.50;;;;;;;;;;4974835;28;20195;-70
2022/08/25 00:09:12;;;;;;;0.60;0.40;;;;;;;;;;4985012;28;20277;-69
2022/08/25 00:11:40;;;;;;;0.40;0.40;;;;;;;;;;4984097;28;20269;-70
2022/08/25 00:14:10;;;;;;;0.47;0.47;;;;;;;;;;4988445;28;20190;-69
2022/08/25 00:16:38;;;;;;;0.30;0.30;;;;;;;;;;4989519;28;20201;-69
2022/08/25 00:19:07;;;;;;;0.60;0.30;;;;;;;;;;4974654;28;20399;-69
2022/08/25 00:21:35;;;;;;;1.00;0.40;;;;;;;;;;4992137;28;20245;-70
2022/08/25 00:24:03;;;;;;;0.53;0.30;;;;;;;;;;4984092;28;20217;-69
2022/08/25 00:26:31;;;;;;;0.40;0.40;;;18.60;99.90;;;;;;4984952;28;20191;-70
2022/08/25 00:28:58;;;;;;;0.50;0.50;;;19.60;99.90;;;;;;4992377;28;20174;-70
2022/08/25 00:31:26;;;;;;;0.30;0.30;;;20.10;99.90;;;;;;4974481;28;20183;-70
2022/08/25 00:33:57;;;;;;;2.70;0.57;;;20.10;99.90;;;;;;4993578;28;20190;-69
2022/08/25 00:36:29;;;;;;;0.40;0.40;;;;;;;;;;4993480;28;20186;-70
2022/08/25 00:39:01;;;;;;;0.57;0.50;;;20.10;99.90;;;;;;4976100;28;20225;-70
2022/08/25 00:41:32;;;;;;;0.73;0.30;;;;;;;;;;4989172;28;20237;-70
2022/08/25 00:44:03;;;;;;;0.30;0.30;;;;;;;;;;4957668;28;20205;-70
2022/08/25 00:46:37;;;;;;;0.40;0.40;;;;;;;;;;4990800;28;20217;-70
2022/08/25 00:49:21;;;;;;;0.60;0.37;;;;;;;;;;4974501;28;20656;-69
2022/08/25 00:51:57;;;;;;;0.30;0.30;;;;;;;;;;4985835;28;20185;-72
2022/08/25 00:54:31;;;;;;;0.50;0.30;;;;;;;;;;4978275;28;20188;-72
2022/08/25 00:57:00;;;;;;;0.40;0.40;;;19.50;99.90;;;;;;4964734;28;20191;-70
2022/08/25 00:59:29;;;;;;;0.40;0.30;;;19.30;99.90;;;;;;4988029;28;20310;-71
2022/08/25 01:02:00;;;;;;;0.30;0.30;;;19.10;99.90;;;;;;4990326;28;20214;-70
2022/08/25 01:04:27;;;;;;;0.70;0.40;;;18.80;99.90;;;;;;4976958;28;20195;-71
2022/08/25 01:06:58;;;;;;;0.40;0.40;;;18.90;99.90;;;;;;4956566;28;20283;-69
2022/08/25 01:09:31;;;;;;;0.53;0.40;;;19.00;99.90;;;;;;4974072;28;20230;-69
2022/08/25 01:12:01;;;;;;;0.63;0.47;;;18.90;99.90;;;;;;4988510;28;20239;-70
2022/08/25 01:14:31;;;;;;;0.33;0.33;;;18.70;99.90;;;;;;4990124;28;20198;-71
2022/08/25 01:17:02;;;;;;;0.30;0.30;;;18.60;99.90;;;;;;4988866;28;20222;-70
2022/08/25 01:19:32;;;;;;;0.37;0.37;;;18.50;99.90;;;;;;4974947;28;20226;-70
2022/08/25 01:22:00;;;;;;;0.80;0.33;;;;;;;;;;4981907;28;20272;-69
2022/08/25 01:24:35;;;;;;;0.83;0.40;;;;;;;;;;4976509;28;20257;-70
2022/08/25 01:27:04;;;;;;;0.30;0.30;;;;;;;;;;4980101;28;20180;-70
2022/08/25 01:29:34;;;;;;;0.27;0.27;;;;;;;;;;4973329;28;20339;-69
2022/08/25 01:32:04;;;;;;;0.50;0.30;;;;;;;;;;4979674;28;20242;-69
2022/08/25 01:34:33;;;;;;;2.73;0.40;;;;;;;;;;4973311;28;20210;-69
2022/08/25 01:37:00;;;;;;;1.20;0.40;;;;;;;;;;4973424;28;20231;-69
2022/08/25 01:39:29;;;;;;;0.70;0.33;;;;;;;;;;4973198;28;20210;-69
2022/08/25 01:42:08;;;;;;;0.30;0.30;;;;;;;;;;4981925;28;20217;-68
2022/08/25 01:44:37;;;;;;;0.40;0.37;;;;;;;;;;4974953;28;20539;-70
2022/08/25 01:47:05;;;;;;;0.87;0.40;;;;;;;;;;4992504;28;20178;-71
2022/08/25 01:49:33;;;;;;;0.40;0.40;;;;;;;;;;4992725;28;20538;-71
2022/08/25 01:52:11;;;;;;;0.40;0.40;;;;;;;;;;4982577;28;20188;-68
2022/08/25 01:54:39;;;;;;;1.80;0.20;;;;;;;;;;4977641;28;20186;-70
2022/08/25 01:57:08;;;;;;;0.77;0.30;;;;;;;;;;4975123;28;20198;-70
2022/08/25 01:59:36;;;;;;;1.80;0.30;;;;;;;;;;4991742;28;20217;-70
2022/08/25 02:02:04;;;;;;;0.90;0.30;;;;;;;;;;4981946;28;20214;-69
2022/08/25 02:04:32;;;;;;;0.27;0.27;;;;;;;;;;4980009;28;20237;-69
2022/08/25 02:07:04;;;;;;;0.33;0.33;;;;;;;;;;4992339;28;20636;-69
2022/08/25 02:09:32;;;;;;;1.47;0.50;;;;;;;;;;4992239;28;20269;-69
2022/08/25 02:12:00;;;;;;;0.30;0.30;;;;;;;;;;4981565;28;20593;-70
2022/08/25 02:14:28;;;;;;;0.40;0.30;;;;;;;;;;4972890;28;20231;-70
2022/08/25 02:16:57;;;;;;;0.30;0.30;;;;;;;;;;4972794;28;20223;-69
2022/08/25 02:19:25;;;;;;;0.80;0.37;;;;;;;;;;4972966;28;20246;-68
2022/08/25 02:21:54;;;;;;;1.80;0.30;;;;;;;;;;4972593;28;20188;-69
2022/08/25 02:24:22;;;;;;;0.30;0.30;;;;;;;;;;4972912;28;20216;-68
2022/08/25 02:26:50;;;;;;;0.30;0.30;;;;;;;;;;4955090;28;20247;-69
2022/08/25 02:29:18;;;;;;;0.20;0.20;;;;;;;;;;4972725;28;20184;-69
2022/08/25 02:31:47;;;;;;;0.20;0.20;;;;;;;;;;4983888;28;20191;-67
2022/08/25 02:34:15;;;;;;;0.40;0.30;;;;;;;;;;4992090;28;20228;-69
2022/08/25 02:36:44;;;;;;;0.30;0.30;;;;;;;;;;4988070;28;20186;-69
2022/08/25 02:39:12;;;;;;;0.30;0.30;;;;;;;;;;4972675;28;20270;-69
2022/08/25 02:41:41;;;;;;;2.43;0.30;;;;;;;;;;4972753;28;20234;-69
2022/08/25 02:44:09;;;;;;;0.77;0.50;;;;;;;;;;4972430;28;20276;-69
2022/08/25 02:46:38;;;;;;;0.30;0.30;;;;;;;;;;4972561;28;20179;-69
2022/08/25 02:49:08;;;;;;;0.40;0.40;;;;;;;;;;4972409;28;20226;-69
2022/08/25 02:51:36;;;;;;;1.50;0.30;;;;;;;;;;4981619;28;20632;-69
2022/08/25 02:54:06;;;;;;;0.23;0.23;;;;;;;;;;4984738;28;20201;-70
2022/08/25 02:56:35;;;;;;;0.20;0.20;;;;;;;;;;4976164;28;20175;-70
2022/08/25 02:59:03;;;;;;;0.20;0.20;;;;;;;;;;4976382;28;20218;-69
2022/08/25 03:01:32;;;;;;;0.27;0.27;;;;;;;;;;4976157;28;20178;-70
2022/08/25 03:04:00;;;;;;;0.43;0.30;;;;;;;;;;4984356;28;20193;-70
2022/08/25 03:06:29;;;;;;;1.60;0.20;;;;;;;;;;4981628;28;20195;-69
2022/08/25 03:08:58;;;;;;;0.20;0.20;;;;;;;;;;4992636;28;20227;-68
2022/08/25 03:11:26;;;;;;;1.60;0.37;;;;;;;;;;4998853;28;20190;-68
2022/08/25 03:13:56;;;;;;;0.20;0.20;;;;;;;;;;4998379;28;20183;-70
2022/08/25 03:16:25;;;;;;;0.30;0.30;;;;;;;;;;4997551;28;20175;-69
2022/08/25 03:18:53;;;;;;;0.70;0.30;;;;;;;;;;4979815;28;20267;-71
2022/08/25 03:21:21;;;;;;;0.73;0.30;;;;;;;;;;4996957;28;20220;-68
2022/08/25 03:23:49;;;;;;;0.40;0.40;;;;;;;;;;4997153;28;20183;-69
2022/08/25 03:29:06;;;;;;;0.20;0.20;;;;;;;;;;4997022;28;20248;-69
2022/08/25 03:31:35;;;;;;;0.20;0.20;;;;;;;;;;4996948;28;20183;-68
2022/08/25 03:34:04;;;;;;;0.30;0.30;;;;;;;;;;4996929;28;20589;-69
2022/08/25 03:36:32;;;;;;;0.20;0.20;;;;;;;;;;4979005;28;20643;-71
2022/08/25 03:39:00;;;;;;;0.50;0.30;;;;;;;;;;4996629;28;20242;-70
2022/08/25 03:41:31;;;;;;;1.43;0.40;;;;;;;;;;4996641;28;20187;-70
2022/08/25 03:44:00;;;;;;;0.30;0.30;;;;;;;;;;4996645;28;20177;-69
2022/08/25 03:46:30;;;;;;;0.40;0.30;;;;;;;;;;4996400;28;20177;-68
2022/08/25 03:48:58;;;;;;;0.30;0.30;;;;;;;;;;4996610;28;20540;-69
2022/08/25 03:51:34;;;;;;;1.03;0.50;;;;;;;;;;4996135;28;20176;-69
2022/08/25 03:54:03;;;;;;;1.40;0.30;;;;;;;;;;4996283;28;20629;-69
2022/08/25 03:56:31;;;;;;;0.70;0.50;;;;;;;;;;4995939;28;20598;-69
2022/08/25 03:59:00;;;;;;;0.30;0.30;;;;;;;;;;4978504;28;20188;-68
2022/08/25 04:01:28;;;;;;;0.37;0.37;;;;;;;;;;4996119;28;20178;-68
2022/08/25 04:03:57;;;;;;;1.03;0.40;;;;;;;;;;4996224;28;20187;-68
2022/08/25 04:06:25;;;;;;;0.37;0.37;;;;;;;;;;4978407;28;20178;-68
2022/08/25 04:08:54;;;;;;;2.13;0.40;;;;;;;;;;4995622;28;20230;-69
2022/08/25 04:11:24;;;;;;;2.10;0.43;;;;;;;;;;4996053;28;20540;-69
2022/08/25 04:13:52;;;;;;;1.30;0.30;;;;;;;;;;4995972;28;20182;-68
2022/08/25 04:16:23;;;;;;;0.60;0.40;;;;;;;;;;4978055;28;20248;-70
2022/08/25 04:18:51;;;;;;;0.47;0.40;;;;;;;;;;4995800;28;20206;-68
2022/08/25 04:21:20;;;;;;;0.60;0.50;;;;;;;;;;4978209;28;20218;-69
2022/08/25 04:23:50;;;;;;;0.80;0.50;;;;;;;;;;4995740;28;20186;-70
2022/08/25 04:26:29;;;;;;;0.60;0.50;;;;;;;;;;4995591;28;20198;-69
2022/08/25 04:28:58;;;;;;;2.10;0.67;;;;;;;;;;4995655;28;20568;-71
2022/08/25 04:31:27;;;;;;;1.27;0.60;;;;;;;;;;4995880;28;20167;-67
2022/08/25 04:33:56;;;;;;;1.17;0.60;;;;;;;;;;4995510;28;20286;-68
2022/08/25 04:36:24;;;;;;;0.97;0.50;;;;;;;;;;4995708;28;20174;-68
2022/08/25 04:38:52;;;;;;;1.37;0.40;;;;;;;;;;4995402;28;20176;-68
2022/08/25 04:41:23;;;;;;;0.50;0.40;;;;;;;;;;4995293;28;20214;-69
2022/08/25 04:43:52;;;;;;;0.80;0.50;;;;;;;;;;4995169;28;20177;-68
2022/08/25 04:46:24;;;;;;;0.53;0.40;;;;;;;;;;4995473;28;20223;-68
2022/08/25 04:48:55;;;;;;;0.83;0.50;;;;;;;;;;4995134;28;20175;-68
2022/08/25 04:51:33;;;;;;;0.40;0.40;;;;;;;;;;4995124;28;20714;-69
2022/08/25 04:54:05;;;;;;;0.77;0.57;;;;;;;;;;4995349;28;20202;-67
2022/08/25 04:56:36;;;;;;;1.13;0.50;;;;;;;;;;4995225;28;20178;-69
2022/08/25 04:59:10;;;;;;;0.80;0.63;;;;;;;;;;4995358;28;20184;-68
2022/08/25 05:01:40;;;;;;;2.10;0.60;;;;;;;;;;4994857;28;20205;-68
2022/08/25 05:04:09;;;;;;;0.70;0.50;;;;;;;;;;4977375;28;20520;-69
2022/08/25 05:06:38;;;;;;;3.30;0.57;;;;;;;;;;4995103;28;20179;-72
2022/08/25 05:09:06;;;;;;;1.07;0.47;;;;;;;;;;4976991;28;20238;-71
2022/08/25 05:11:34;;;;;;;0.97;0.40;;;;;;;;;;4995024;28;20183;-71
2022/08/25 05:14:03;;;;;;;1.07;0.50;;;;;;;;;;4977470;28;20196;-72
2022/08/25 05:16:32;;;;;;;1.30;0.50;;;;;;;;;;4994564;28;20370;-73
2022/08/25 05:19:00;;;;;;;0.80;0.50;;;;;;;;;;4994753;28;20186;-70
2022/08/25 05:21:29;;;;;;;1.07;0.60;;;;;;;;;;4976851;28;20230;-71
2022/08/25 05:24:03;;;;;;;4.73;0.50;;;;;;;;;;4994633;28;20182;-70
2022/08/25 05:26:32;;;;;;;16.37;9.37;;;;;;;;;;4994786;28;20182;-70
2022/08/25 05:29:03;;;;;;;2.10;1.10;;;;;;;;;;4994478;28;20180;-70
2022/08/25 05:31:37;;;;;;;3.37;1.03;;;;;;;;;;4994636;28;20198;-71
2022/08/25 05:34:15;;;;;;;1.77;0.60;;;;;;;;;;4977131;28;20266;-71
2022/08/25 05:36:44;;;;;;;1.07;0.80;;;;;;;;;;4994405;28;20186;-70
2022/08/25 05:39:22;;;;;;;0.97;0.50;;;;;;;;;;4978004;28;20646;-72
2022/08/25 05:41:54;;;;;;;2.20;0.60;;;;;;;;;;4994389;28;20205;-72
2022/08/25 05:44:31;;;;;;;0.60;0.60;;;;;;;;;;4977078;28;20260;-72
2022/08/25 05:47:42;;;;;;;1.07;0.73;;;;;;;;;;4986381;28;20529;-70
2022/08/25 05:50:17;;;;;;;1.10;0.70;;;;;;;;;;4990911;28;20214;-70
2022/08/25 05:52:47;;;;;;;1.50;0.70;;;;;;;;;;4973573;28;20194;-70
2022/08/25 05:55:18;;;;;;;1.03;0.70;;;;;;;;;;4991557;28;20209;-71
2022/08/25 05:57:48;;;;;;;0.87;0.53;;;;;;;;;;4974703;28;20245;-72
2022/08/25 06:00:19;;;;;;;3.27;0.70;;;;;;;;;;4978544;28;20186;-70
2022/08/25 06:02:50;;;;;;;3.60;0.80;;;;;;;;;;4982234;28;20223;-71
2022/08/25 06:05:21;;;;;;;2.83;0.60;;;;;;;;;;4982820;28;20179;-70
2022/08/25 06:07:56;;;;;;;4.03;1.10;;;;;;;;;;4993550;28;20244;-72
2022/08/25 06:10:27;;;;;;;3.07;0.80;;;;;;;;;;4992172;28;20249;-71
2022/08/25 06:12:58;;;;;;;1.73;0.63;;;;;;;;;;4974665;28;20648;-71
2022/08/25 06:15:37;;;;;;;3.63;0.77;;;;;;;;;;4959775;28;20242;-71
2022/08/25 06:18:06;;;;;;;0.60;0.50;;;;;;;;;;4956798;28;20574;-72
2022/08/25 06:20:33;;;;;;;0.80;0.50;;;;;;;;;;4986118;28;20205;-72
2022/08/25 06:23:04;;;;;;;3.90;0.80;;;;;;;;;;4993619;28;20225;-70
2022/08/25 06:25:34;;;;;;;1.37;0.90;;;;;;;;;;4963540;28;20191;-71
2022/08/25 06:28:02;;;;;;;2.50;0.80;;;;;;;;;;4974165;28;20246;-72
2022/08/25 06:30:32;;;;;;;1.13;0.80;;;;;;;;;;4987501;28;20628;-71
2022/08/25 06:33:01;;;;;;;1.83;0.70;;;;;;;;;;4978148;28;20234;-71
2022/08/25 06:35:29;;;;;;;1.20;0.50;;;;;;;;;;4981745;28;20190;-71
2022/08/25 06:37:57;;;;;;;1.50;0.60;;;;;;;;;;4980712;28;20229;-72
2022/08/25 06:40:26;;;;;;;3.70;0.80;;;;;;;;;;4986465;28;20195;-71
2022/08/25 06:42:54;;;;;;;3.03;0.60;;;;;;;;;;4978059;28;20258;-71
2022/08/25 06:45:23;;;;;;;0.67;0.60;;;;;;;;;;4977926;28;20222;-70
2022/08/25 06:47:53;;;;;;;2.23;0.80;;;;;;;;;;4977892;28;20207;-72
2022/08/25 06:50:23;;;;;;;2.53;0.70;;;;;;;;;;4987757;28;20187;-70
2022/08/25 06:52:53;;;;;;;1.23;0.50;;;;;;;;;;4995352;28;20186;-71
2022/08/25 06:55:23;;;;;;;2.43;0.80;;;;;;;;;;4978028;28;20184;-70
2022/08/25 06:57:56;;;;;;;1.50;0.50;;;;;;;;;;4982401;28;20249;-70
2022/08/25 07:00:27;;;;;;;1.23;0.60;;;;;;;;;;4996411;28;20664;-71
2022/08/25 07:03:03;;;;;;;1.63;0.60;;;;;;;;;;4994849;28;20243;-72
2022/08/25 07:06:03;;;;;;;2.00;0.90;;;;;;;;;;4978502;28;20183;-70
2022/08/25 07:11:26;;;;;;;2.87;0.87;;;;;;;;;;4962976;23;20227;-72
2022/08/25 07:13:54;;;;;;;1.30;0.80;;;;;;;;;;4977787;28;20179;-71
2022/08/25 07:16:22;;;;;;;1.07;0.80;;;;;;;;;;4977702;28;20258;-72
2022/08/25 07:18:50;;;;;;;21.80;11.43;;;;;;;;;;4960291;28;20183;-73
2022/08/25 07:21:18;;;;;;;3.77;2.43;;;;;;;;;;4974164;28;20179;-72
2022/08/25 07:23:45;;;;;;;2.47;1.20;;;;;;;;;;4973118;28;20699;-71
2022/08/25 07:26:16;;;;;;;1.67;1.10;;;;;;;;;;4966629;28;20367;-72
2022/08/25 07:28:43;;;;;;;3.03;0.87;;;;;;;;;;4957845;29;20196;-71
2022/08/25 07:31:11;;;;;;;3.43;0.80;;;;;;;;;;4965902;28;20226;-71
2022/08/25 07:35:14;;;;;;;2.70;0.90;;;;;;;;;;4957729;28;20215;-72
2022/08/25 07:36:29;;;;;;;1.10;0.87;;;;;;;;;;4957983;28;20223;-72
2022/08/25 07:38:57;;;;;;;2.33;1.17;;;;;;;;;;4972005;28;20194;-70
2022/08/25 07:41:27;;;;;;;1.80;0.90;;;;;;;;;;4972660;28;20243;-70
2022/08/25 07:43:55;;;;;;;0.93;0.80;;;;;;;;;;4959944;28;20207;-70
2022/08/25 07:46:24;;;;;;;1.10;0.80;;;;;;;;;;4976985;28;20587;-70
2022/08/25 07:48:51;;;;;;;1.20;0.90;;;;;;;;;;4957590;28;20727;-70
2022/08/25 07:51:19;;;;;;;1.20;1.00;;;;;;;;;;4965371;28;20644;-72
2022/08/25 07:53:46;;;;;;;1.93;1.00;;;;;;;;;;4957686;29;20175;-70
2022/08/25 07:56:15;;;;;;;0.93;0.70;;;;;;;;;;4957672;28;20530;-71
2022/08/25 07:58:43;;;;;;;4.53;1.33;;;;;;;;;;4957362;28;20285;-70
2022/08/25 08:01:14;;;;;;;2.00;1.10;;;;;;;;;;4943200;28;20261;-71
2022/08/25 08:03:42;;;;;;;2.03;0.97;;;;;;;;;;4962212;28;20211;-71
2022/08/25 08:06:10;;;;;;;5.27;2.00;;;;;;;;;;4961222;28;20234;-71
2022/08/25 08:08:38;;;;;;;4.23;1.97;;;;;;;;;;4947866;28;20225;-71
2022/08/25 08:11:33;;;;;;;3.10;2.10;;;;;;;;;;4936611;29;20254;-71
2022/08/25 08:14:01;;;;;;;4.43;2.30;;;;;;;;;;4967261;28;20210;-70
2022/08/25 08:16:29;;;;;;;4.37;2.20;;;;;;;;;;4975201;28;20195;-72
2022/08/25 08:18:57;;;;;;;10.30;6.50;;;;;;;;;;4974512;28;20558;-70
2022/08/25 08:21:30;;;;;;;10.40;5.13;;;;;;;;;;4974603;28;20175;-72
2022/08/25 08:23:57;;;;;;;3.77;2.30;;;;;;;;;;4973980;28;20679;-71
2022/08/25 08:26:26;;;;;;;2.93;2.07;;;;;;;;;;4955713;28;20311;-70
2022/08/25 08:28:56;;;;;;;3.87;2.50;;;;;;;;;;4955359;29;20191;-70
2022/08/25 08:31:28;;;;;;;4.83;2.27;;;;;;;;;;4955496;29;20190;-70
2022/08/25 08:33:56;;;;;;;4.40;2.40;;;;;;;;;;4955373;29;20185;-73
2022/08/25 08:36:25;;;;;;;5.90;2.43;;;;;;;;;;4955449;29;20178;-71
2022/08/25 08:38:53;;;;;;;4.47;3.00;;;;;;;;;;4969877;28;20195;-71
2022/08/25 08:44:40;;;;;;;6.77;2.60;;;;;;;;;;4955269;28;20790;-72
2022/08/25 08:47:23;;;;;;;6.10;2.60;;;;;;;;;;4954989;28;20195;-71
2022/08/25 08:50:09;;;;;;;6.93;3.77;;;;;;;;;;4955240;29;20182;-71
2022/08/25 08:52:56;;;;;;;5.13;2.83;;;;;;;;;;4952964;28;20189;-71
2022/08/25 08:55:37;;;;;;;7.43;3.87;;;;;;;;;;4955136;29;20185;-71
2022/08/25 08:58:32;;;;;;;6.40;3.87;;;;;;;;;;4955064;28;20193;-71
2022/08/25 09:01:07;;;;;;;13.07;4.70;;;;;;;;;;4961418;28;20194;-71
2022/08/25 09:03:50;;;;;;;6.47;3.93;;;;;;;;;;4953211;29;20189;-71
2022/08/25 09:06:26;;;;;;;8.70;5.30;;;;;;;;;;4955851;28;20222;-70
2022/08/25 09:08:58;;;;;;;9.00;4.30;;;;;;;;;;4955722;28;20197;-71
2022/08/25 09:11:38;;;;;;;6.67;4.10;;;;;;;;;;4971024;28;20596;-71
2022/08/25 09:14:14;;;;;;;10.33;6.50;;;;;;;;;;4966023;28;20189;-69
2022/08/25 09:17:05;;;;;;;11.37;7.40;;;;;;;;;;4937833;28;20731;-72
2022/08/25 09:19:53;;;;;;;12.73;6.20;;;;;;;;;;4966374;28;20222;-71
2022/08/25 09:22:35;;;;;;;11.73;4.83;;;;;;;;;;4969204;28;20196;-71
2022/08/25 09:25:14;;;;;;;8.10;4.27;;;;;;;;;;4956011;28;20534;-71
2022/08/25 09:27:41;;;;;;;9.27;5.27;;;;;;;;;;4951432;28;20561;-70
2022/08/25 09:30:10;;;;;;;12.47;4.93;;;;;;;;;;4959176;28;20189;-71
2022/08/25 09:32:45;;;;;;;8.20;4.60;;;;;;;;;;4952828;28;20243;-70
2022/08/25 09:35:19;;;;;;;7.37;4.97;;;;;;;;;;4962116;28;20265;-70
2022/08/25 09:38:03;;;;;;;7.60;4.73;;;;;;;;;;4936656;29;20311;-72
2022/08/25 09:40:35;;;;;;;13.70;5.33;;;;;;;;;;4974519;28;20671;-70
2022/08/25 09:43:18;;;;;;;9.07;5.33;;;;;;;;;;4974472;28;20576;-71
2022/08/25 09:45:47;;;;;;;11.63;4.90;;;;;;;;;;4958013;28;20221;-72
2022/08/25 09:48:23;;;;;;;10.33;4.73;;;;;;;;;;4955369;29;20589;-71
2022/08/25 09:50:52;;;;;;;9.00;4.73;;;;;;;;;;4970227;28;20188;-70
2022/08/25 09:53:20;;;;;;;10.80;5.23;;;12.40;99.90;;;;;;4955555;28;20254;-70
2022/08/25 09:55:54;;;;;;;7.43;4.90;;;;;;;;;;4971624;28;20196;-71
2022/08/25 09:58:24;;;;;;;11.87;5.80;;;;;;;;;;4975006;28;20262;-70
2022/08/25 10:01:15;;;;;;;8.80;4.97;;;;;;;;;;4959697;28;20217;-72
2022/08/25 10:03:57;;;;;;;9.80;4.93;;;;;;;;;;4969967;28;20181;-72
2022/08/25 10:06:33;;;;;;;8.13;5.33;;;;;;;;;;4936349;28;20227;-70
2022/08/25 10:09:07;;;;;;;8.73;4.80;;;;;;;;;;4953020;28;20194;-71
2022/08/25 10:11:38;;;;;;;10.70;5.17;;;;;;;;;;4955700;29;20195;-72
2022/08/25 10:14:15;;;;;;;12.97;5.97;;;;;;;;;;4966470;28;20183;-71
2022/08/25 10:16:46;;;;;;;11.43;5.10;;;;;;;;;;4974387;28;20181;-72
2022/08/25 10:19:25;;;;;;;9.30;4.13;;;;;;;;;;4974412;28;20208;-71
2022/08/25 10:22:08;;;;;;;11.33;5.10;;;;;;;;;;4974628;28;20180;-71
2022/08/25 10:24:39;;;;;;;7.27;3.60;;;;;;;;;;4974602;28;20657;-71
2022/08/25 10:27:14;;;;;;;10.10;3.83;;;;;;;;;;4972506;28;20247;-71
2022/08/25 10:29:53;;;;;;;7.77;3.60;;;;;;;;;;4962040;28;20276;-72
2022/08/25 10:32:32;;;;;;;5.33;3.53;;;;;;;;;;4974515;28;20184;-71
2022/08/25 10:35:02;;;;;;;6.17;3.67;;;;;;;;;;4962930;28;20193;-71
2022/08/25 10:37:49;;;;;;;6.90;3.37;;;;;;;;;;4956961;28;20538;-71
2022/08/25 10:40:17;;;;;;;7.47;3.03;;;;;;;;;;4957015;28;20184;-72
2022/08/25 10:42:54;;;;;;;4.23;2.83;;;;;;;;;;4974701;28;20189;-70
2022/08/25 10:48:11;;;;;;;8.07;2.90;;;;;;;;;;4967132;28;20309;-71
2022/08/25 10:50:46;;;;;;;5.27;3.20;;;;;;;;;;4969751;28;20189;-71
2022/08/25 10:53:27;;;;;;;5.57;2.90;;;;;;;;;;4955029;29;20180;-72
2022/08/25 10:56:13;;;;;;;8.77;3.20;;;;;;;;;;4950574;29;20194;-70
2022/08/25 10:59:02;;;;;;;6.83;2.77;;;;;;;;;;4961602;28;20240;-71
2022/08/25 11:01:49;;;;;;;7.63;3.93;;;;;;;;;;4954800;28;20283;-71
2022/08/25 11:04:43;;;;;;;8.30;3.43;;;;;;;;;;4955845;28;20196;-71
2022/08/25 11:07:18;;;;;;;7.53;3.73;;;;;;;;;;4925858;29;20275;-71
2022/08/25 11:09:50;;;;;;;6.77;3.77;;;;;;;;;;4947186;28;20309;-71
2022/08/25 11:12:24;;;;;;;6.77;4.00;;;;;;;;;;4965073;28;20273;-71
2022/08/25 11:15:08;;;;;;;6.53;3.80;;;;;;;;;;4969236;28;20208;-70
2022/08/25 11:17:39;;;;;;;5.60;3.13;;;;;;;;;;4973833;28;20222;-71
2022/08/25 11:20:13;;;;;;;5.53;2.93;;;;;;;;;;4958385;28;20533;-71
2022/08/25 11:23:09;;;;;;;6.90;2.33;;;;;;;;;;4958222;28;20193;-72
2022/08/25 11:25:48;;;;;;;8.77;3.37;;;;;;;;;;4974531;28;20200;-71
2022/08/25 11:28:34;;;;;;;7.17;3.10;;;;;;;;;;4960489;28;20192;-71
2022/08/25 11:31:02;;;;;;;4.23;3.03;;;;;;;;;;4960078;28;20581;-69
2022/08/25 11:33:32;;;;;;;6.40;3.00;;;;;;;;;;4976024;28;20581;-71
2022/08/25 11:36:00;;;;;;;5.23;2.30;;;;;;;;;;4958245;28;20177;-70
2022/08/25 11:38:46;;;;;;;3.53;2.60;;;;;;;;;;4957993;29;20241;-72
2022/08/25 11:41:33;;;;;;;3.07;2.37;;;;;;;;;;4937425;29;20241;-70
2022/08/25 11:44:16;;;;;;;3.93;2.63;;;;;;;;;;4954680;28;20181;-71
2022/08/25 11:47:02;;;;;;;8.03;2.50;;;;;;;;;;4977049;28;20214;-70
2022/08/25 11:49:33;;;;;;;4.17;2.03;;;;;;;;;;4977088;28;20187;-70
2022/08/25 11:52:01;;;;;;;7.50;2.00;;;;;;;;;;4959592;28;20184;-70
2022/08/25 11:54:37;;;;;;;4.10;2.10;;;;;;;;;;4965077;28;20187;-71
2022/08/25 11:57:31;;;;;;;3.13;1.70;;;;;;;;;;4957769;28;20260;-72
2022/08/25 12:00:02;;;;;;;6.40;2.17;;;;;;;;;;4956132;28;20282;-71
2022/08/25 12:02:43;;;;;;;4.97;1.40;;;;;;;;;;4963530;28;20533;-69
2022/08/25 12:05:13;;;;;;;4.83;1.53;;;;;;;;;;4974553;28;20571;-71
2022/08/25 12:10:54;;;;;;;2.33;1.57;;;;;;;;;;4957206;28;20312;-70
2022/08/25 12:13:39;;;;;;;1.90;1.60;;;;;;;;;;4959734;28;20200;-71
2022/08/25 12:16:08;;;;;;;2.77;1.57;;;;;;;;;;4976850;28;20642;-71
2022/08/25 12:18:41;;;;;;;2.47;1.40;;;;;;;;;;4976486;28;20228;-71
2022/08/25 12:21:11;;;;;;;3.50;1.40;;;;;;;;;;4946256;29;20552;-71
2022/08/25 12:23:43;;;;;;;3.40;1.83;;;13.20;99.90;;;;;;4961521;28;20193;-70
2022/08/25 12:26:45;;;;;;;3.00;1.37;;;13.30;99.90;;;;;;4975865;28;20620;-72
2022/08/25 12:29:51;;;;;;;3.33;1.50;;;13.20;99.90;;;;;;4959077;28;20588;-71
2022/08/25 12:33:11;;;;;;;4.23;1.37;;;13.20;99.90;;;;;;4968063;28;20186;-71
2022/08/25 12:35:40;;;;;;;2.57;1.50;;;13.20;99.90;;;;;;4916337;29;20198;-71
2022/08/25 12:38:17;;;;;;;2.63;1.37;;;13.10;99.90;;;;;;4936018;29;20203;-70
2022/08/25 12:40:45;;;;;;;4.03;1.90;;;13.00;99.90;;;;;;4956912;28;20193;-70
2022/08/25 12:43:19;;;;;;;3.77;2.13;;;12.90;99.90;;;;;;4960279;28;20196;-70
2022/08/25 12:45:49;;;;;;;8.70;3.07;;;12.90;99.90;;;;;;4976645;28;20179;-72
2022/08/25 12:48:30;;;;;;;5.27;2.43;;;;;;;;;;4975810;28;20281;-70
2022/08/25 12:51:03;;;;;;;3.10;1.77;;;12.70;99.90;;;;;;4964735;28;20191;-71
2022/08/25 12:53:36;;;;;;;4.37;1.97;;;;;;;;;;4957898;28;20189;-69
2022/08/25 12:56:31;;;;;;;3.10;1.43;;;12.60;99.90;;;;;;4956672;28;20539;-69
2022/08/25 12:59:02;;;;;;;2.87;1.77;;;12.60;99.90;;;;;;4927303;29;20210;-70
2022/08/25 13:02:06;;;;;;;4.33;2.37;;;12.60;99.90;;;;;;4971672;28;20188;-71
2022/08/25 13:05:04;;;;;;;4.13;2.13;;;12.50;99.90;;;;;;4959190;28;20681;-70
2022/08/25 13:08:15;;;;;;;3.73;2.43;;;12.50;99.90;;;;;;4955963;29;20234;-71
2022/08/25 13:11:20;;;;;;;5.27;2.33;;;12.40;99.90;;;;;;4912095;29;20284;-71
2022/08/25 13:14:05;;;;;;;2.93;2.43;;;;;;;;;;4938233;29;20177;-71
2022/08/25 13:16:33;;;;;;;5.90;2.93;;;;;;;;;;4971025;28;20248;-71
2022/08/25 13:19:04;;;;;;;3.00;2.27;;;;;;;;;;4956337;29;20180;-70
2022/08/25 13:21:42;;;;;;;3.50;2.60;;;12.30;99.90;;;;;;4970782;28;20186;-70
2022/08/25 13:24:18;;;;;;;3.57;2.10;;;;;;;;;;4955370;29;20630;-70
2022/08/25 13:26:47;;;;;;;2.70;2.00;;;;;;;;;;4956248;29;20212;-70
2022/08/25 13:29:19;;;;;;;3.63;1.97;;;;;;;;;;4955136;28;20554;-72
2022/08/25 13:31:53;;;;;;;2.13;1.90;;;;;;;;;;4955347;28;20189;-71
2022/08/25 13:34:24;;;;;;;2.20;1.70;;;12.40;99.90;;;;;;4954675;29;20177;-71
2022/08/25 13:39:39;;;;;;;3.57;1.90;;;;;;;;;;4955875;29;20710;-71
2022/08/25 13:42:14;;;;;;;3.70;2.17;;;;;;;;;;4955854;29;20673;-70
2022/08/25 13:44:43;;;;;;;3.73;1.97;;;12.50;99.90;;;;;;4954193;29;20280;-70
2022/08/25 13:47:14;;;;;;;4.67;2.20;;;;;;;;;;4954601;29;20694;-70
2022/08/25 13:49:47;;;;;;;1.70;1.60;;;;;;;;;;4955723;29;20595;-71
2022/08/25 13:52:33;;;;;;;3.30;1.87;;;;;;;;;;4955157;28;20191;-71
2022/08/25 13:55:02;;;;;;;2.60;1.90;;;;;;;;;;4955722;29;20178;-71
2022/08/25 13:57:32;;;;;;;5.53;1.97;;;;;;;;;;4955048;29;20180;-71
2022/08/25 14:00:10;;;;;;;3.03;1.87;;;;;;;;;;4955792;29;20182;-70
2022/08/25 14:02:44;;;;;;;2.47;1.53;;;;;;;;;;4955083;29;20182;-70
2022/08/25 14:05:13;;;;;;;2.33;1.67;;;;;;;;;;4955402;28;20184;-69
2022/08/25 14:07:44;;;;;;;1.50;1.40;;;;;;;;;;4955391;29;20223;-70
2022/08/25 14:13:17;;;;;;;2.13;1.40;;;;;;;;;;5017445;23;20715;-71
2022/08/25 14:15:48;;;;;;;3.57;1.37;;;;;;;;;;5013998;28;20183;-71
2022/08/25 14:18:22;;;;;;;2.43;1.80;;;;;;;;;;5013605;28;20173;-70
2022/08/25 14:20:55;;;;;;;3.27;1.40;;;;;;;;;;5013483;28;20187;-71
2022/08/25 14:23:28;;;;;;;2.90;1.30;;;;;;;;;;5013460;28;20225;-73
2022/08/25 14:25:59;;;;;;;3.93;1.50;;;;;;;;;;5014027;28;20657;-70
2022/08/25 14:28:37;;;;;;;1.10;1.00;;;;;;;;;;5013681;28;20223;-71
2022/08/25 14:31:22;;;;;;;3.30;1.80;;;;;;;;;;5013509;28;20233;-71
2022/08/25 14:34:05;;;;;;;3.07;1.20;;;;;;;;;;5012653;28;20188;-70
2022/08/25 14:36:37;;;;;;;1.67;1.10;;;;;;;;;;4993918;28;20180;-72
2022/08/25 14:39:09;;;;;;;3.33;1.37;;;;;;;;;;5011132;28;20180;-71
2022/08/25 14:41:39;;;;;;;3.43;1.33;;;;;;;;;;5013462;28;20575;-71
2022/08/25 14:44:07;;;;;;;2.27;1.47;;;;;;;;;;5013190;28;20188;-70
2022/08/25 14:46:37;;;;;;;2.27;1.10;;;;;;;;;;5013516;28;20630;-70
2022/08/25 14:49:08;;;;;;;2.17;1.00;;;;;;;;;;5012763;28;20210;-70
2022/08/25 14:51:40;;;;;;;1.97;1.50;;;;;;;;;;5017155;28;20538;-70
2022/08/25 14:54:11;;;;;;;2.37;1.30;;;;;;;;;;5016776;28;20215;-70
2022/08/25 14:56:40;;;;;;;1.93;1.30;;;;;;;;;;5017071;28;20204;-70
2022/08/25 14:59:08;;;;;;;3.50;1.20;;;;;;;;;;5017323;28;20187;-70
2022/08/25 15:01:37;;;;;;;2.73;1.50;;;;;;;;;;5017145;28;20179;-70
2022/08/25 15:04:14;;;;;;;3.97;1.30;;;;;;;;;;5016704;28;20192;-72
2022/08/25 15:06:42;;;;;;;1.63;1.13;;;;;;;;;;5016984;28;20184;-71
2022/08/25 15:09:10;;;;;;;4.00;1.60;;;;;;;;;;5016124;28;20264;-71
2022/08/25 15:11:42;;;;;;;2.60;1.10;;;;;;;;;;5016598;28;20817;-71
2022/08/25 15:14:11;;;;;;;2.47;1.50;;;;;;;;;;5016419;28;20191;-71
2022/08/25 15:16:45;;;;;;;4.17;1.40;;;;;;;;;;5016563;28;20543;-70
2022/08/25 15:19:15;;;;;;;2.97;1.33;;;;;;;;;;5016623;28;20715;-70
2022/08/25 15:21:44;;;;;;;3.40;1.70;;;;;;;;;;5016644;28;20180;-70
2022/08/25 15:24:16;;;;;;;2.00;0.97;;;;;;;;;;5016548;28;20252;-70